Time;durP1;ratioP1;P1;durP2;ratioP2;P2;SDS_P1;SDS_P2;PMS_P1;PMS_P2;Temp;Humidity;BMP_temperature;BMP_pressure;BME280_temperature;BME280_humidity;BME280_pressure;Samples;Min_cycle;Max_cycle;Signal;HPM_P1;HPM_P2
2023/07/27 00:01:38;;;;;;;1.90;1.80;;;12.60;99.90;;;;;;5027779;28;20233;-49
2023/07/27 00:04:05;;;;;;;1.73;1.63;;;12.60;99.90;;;;;;5031588;28;20576;-49
2023/07/27 00:06:32;;;;;;;3.00;1.90;;;12.60;99.90;;;;;;5030488;28;20229;-49
2023/07/27 00:09:00;;;;;;;2.27;2.07;;;12.50;99.90;;;;;;5025616;28;20719;-49
2023/07/27 00:11:27;;;;;;;2.03;1.93;;;12.50;99.90;;;;;;5032702;28;20209;-48
2023/07/27 00:13:54;;;;;;;2.00;1.90;;;12.40;99.90;;;;;;5029167;28;20211;-49
2023/07/27 00:16:23;;;;;;;1.43;1.40;;;12.40;99.90;;;;;;5023753;28;20284;-49
2023/07/27 00:18:50;;;;;;;1.63;1.50;;;12.40;99.90;;;;;;5024856;28;20213;-49
2023/07/27 00:21:17;;;;;;;2.03;1.80;;;12.40;99.90;;;;;;5028869;28;20733;-49
2023/07/27 00:23:43;;;;;;;2.70;1.73;;;12.40;99.90;;;;;;5027457;28;20194;-49
2023/07/27 00:26:10;;;;;;;1.80;1.70;;;12.30;99.90;;;;;;5028109;28;20222;-49
2023/07/27 00:28:37;;;;;;;2.27;2.07;;;12.30;99.90;;;;;;5031221;28;20633;-49
2023/07/27 00:31:04;;;;;;;2.67;1.07;;;12.30;99.90;;;;;;5027901;28;20560;-49
2023/07/27 00:33:33;;;;;;;1.40;1.30;;;12.20;99.90;;;;;;5029503;28;20209;-49
2023/07/27 00:36:00;;;;;;;1.73;1.63;;;12.20;99.90;;;;;;5024413;28;20219;-49
2023/07/27 00:38:27;;;;;;;1.47;1.37;;;12.20;99.90;;;;;;5029724;28;20198;-49
2023/07/27 00:40:55;;;;;;;1.93;1.73;;;12.20;99.90;;;;;;5029966;28;20209;-49
2023/07/27 00:43:22;;;;;;;1.93;1.83;;;12.20;99.90;;;;;;5023622;28;21036;-49
2023/07/27 00:45:50;;;;;;;1.87;1.77;;;12.20;99.90;;;;;;5024260;28;20251;-49
2023/07/27 00:48:17;;;;;;;2.30;2.20;;;12.20;99.90;;;;;;5026482;28;20774;-49
2023/07/27 00:50:47;;;;;;;2.80;1.57;;;12.20;99.90;;;;;;5020144;28;20743;-49
2023/07/27 00:53:15;;;;;;;2.10;1.90;;;12.20;99.90;;;;;;5027357;28;20206;-49
2023/07/27 00:55:44;;;;;;;2.03;1.93;;;12.10;99.90;;;;;;5026485;28;20228;-49
2023/07/27 00:58:12;;;;;;;3.77;2.00;;;12.10;99.90;;;;;;5029318;28;20251;-49
2023/07/27 01:00:41;;;;;;;2.10;1.90;;;12.10;99.90;;;;;;5027946;28;20205;-49
2023/07/27 01:03:08;;;;;;;1.23;1.23;;;12.10;99.90;;;;;;5024912;28;20213;-49
2023/07/27 01:05:36;;;;;;;2.40;1.80;;;12.10;99.90;;;;;;5025412;28;20229;-49
2023/07/27 01:08:05;;;;;;;1.50;1.50;;;12.20;99.90;;;;;;5029835;28;20213;-49
2023/07/27 01:10:42;;;;;;;1.80;1.70;;;12.20;99.90;;;;;;5029545;28;20286;-49
2023/07/27 01:13:19;;;;;;;1.50;1.40;;;12.10;99.90;;;;;;5023768;28;20205;-48
2023/07/27 01:15:50;;;;;;;2.23;2.13;;;12.20;99.90;;;;;;5028560;28;20247;-49
2023/07/27 01:18:23;;;;;;;1.73;1.63;;;12.20;99.90;;;;;;5023920;28;20577;-49
2023/07/27 01:20:58;;;;;;;1.40;1.30;;;12.30;99.90;;;;;;5019413;28;20676;-49
2023/07/27 01:24:18;;;;;;;1.87;1.27;;;12.30;99.90;;;;;;5031423;28;20202;-49
2023/07/27 01:27:14;;;;;;;1.70;1.60;;;12.20;99.90;;;;;;5021478;28;20694;-49
2023/07/27 01:29:57;;;;;;;2.03;1.50;;;12.30;99.90;;;;;;5021290;28;20195;-49
2023/07/27 01:32:29;;;;;;;2.53;1.53;;;12.20;99.90;;;;;;5022265;28;20351;-49
2023/07/27 01:35:00;;;;;;;2.30;2.10;;;12.10;99.90;;;;;;5022205;28;20226;-49
2023/07/27 01:37:31;;;;;;;1.83;1.73;;;12.10;99.90;;;;;;5030388;28;20203;-49
2023/07/27 01:40:00;;;;;;;2.10;1.37;;;12.00;99.90;;;;;;5029048;28;20268;-49
2023/07/27 01:42:30;;;;;;;1.60;1.50;;;12.10;99.90;;;;;;5030714;28;20202;-49
2023/07/27 01:44:58;;;;;;;1.80;1.57;;;12.10;99.90;;;;;;5029815;28;20222;-48
2023/07/27 01:47:28;;;;;;;1.83;1.70;;;12.10;99.90;;;;;;5031066;28;20639;-49
2023/07/27 01:49:55;;;;;;;1.43;1.33;;;12.00;99.90;;;;;;5030583;28;20766;-49
2023/07/27 01:52:23;;;;;;;1.27;1.17;;;12.00;99.90;;;;;;5029393;28;20945;-49
2023/07/27 01:54:51;;;;;;;1.70;1.60;;;12.00;99.90;;;;;;5030977;28;20213;-49
2023/07/27 01:57:19;;;;;;;2.03;1.93;;;12.00;99.90;;;;;;5031108;28;20679;-49
2023/07/27 01:59:47;;;;;;;1.67;1.50;;;12.00;99.90;;;;;;5030911;28;20208;-49
2023/07/27 02:02:14;;;;;;;6.70;2.03;;;12.00;99.90;;;;;;5026520;28;20275;-49
2023/07/27 02:04:43;;;;;;;3.07;1.60;;;12.10;99.90;;;;;;5030195;28;20212;-49
2023/07/27 02:07:10;;;;;;;2.40;1.63;;;12.10;99.90;;;;;;5030121;28;20221;-49
2023/07/27 02:09:37;;;;;;;1.50;1.50;;;12.10;99.90;;;;;;5022378;28;20246;-49
2023/07/27 02:12:12;;;;;;;1.57;1.23;;;12.10;99.90;;;;;;5030975;28;20276;-49
2023/07/27 02:14:46;;;;;;;1.67;1.63;;;12.10;99.90;;;;;;5027393;28;20238;-49
2023/07/27 02:17:17;;;;;;;2.07;1.50;;;12.10;99.90;;;;;;5030642;28;20200;-49
2023/07/27 02:19:50;;;;;;;1.50;1.23;;;12.20;99.90;;;;;;5030125;28;20197;-49
2023/07/27 02:22:18;;;;;;;2.57;1.60;;;12.10;99.90;;;;;;5019609;28;20336;-49
2023/07/27 02:24:45;;;;;;;1.53;1.43;;;12.00;99.90;;;;;;5026485;28;20198;-48
2023/07/27 02:27:12;;;;;;;7.67;1.63;;;12.10;99.90;;;;;;5029787;28;20844;-49
2023/07/27 02:29:39;;;;;;;1.50;1.40;;;12.00;99.90;;;;;;5023756;28;20256;-48
2023/07/27 02:32:06;;;;;;;1.70;1.60;;;11.90;99.90;;;;;;5030123;28;20203;-49
2023/07/27 02:34:33;;;;;;;1.80;1.70;;;12.00;99.90;;;;;;5032394;28;20259;-49
2023/07/27 02:37:02;;;;;;;1.40;1.30;;;11.90;99.90;;;;;;5031486;28;20269;-49
2023/07/27 02:39:29;;;;;;;2.13;1.97;;;11.80;99.90;;;;;;5034616;28;20275;-49
2023/07/27 02:41:55;;;;;;;1.93;1.43;;;11.80;99.90;;;;;;5033040;28;20205;-49
2023/07/27 02:44:22;;;;;;;1.53;1.43;;;11.80;99.90;;;;;;5032924;28;20200;-49
2023/07/27 02:46:49;;;;;;;1.73;1.33;;;11.80;99.90;;;;;;5034152;28;20223;-49
2023/07/27 02:49:16;;;;;;;2.13;1.37;;;11.70;99.90;;;;;;5034392;28;20268;-49
2023/07/27 02:51:43;;;;;;;2.20;2.03;;;11.70;99.90;;;;;;5034554;28;20340;-49
2023/07/27 02:54:12;;;;;;;1.67;1.57;;;11.70;99.90;;;;;;5033795;28;20295;-50
2023/07/27 02:56:39;;;;;;;1.40;1.30;;;11.60;99.90;;;;;;5030528;28;20234;-49
2023/07/27 02:59:06;;;;;;;6.07;3.00;;;11.60;99.90;;;;;;5035010;28;20205;-49
2023/07/27 03:01:32;;;;;;;2.40;2.30;;;11.60;99.90;;;;;;5032343;28;20225;-49
2023/07/27 03:03:59;;;;;;;2.93;2.70;;;11.60;99.90;;;;;;5034403;28;20201;-48
2023/07/27 03:06:26;;;;;;;1.30;1.30;;;11.60;99.90;;;;;;5030348;28;20229;-49
2023/07/27 03:08:53;;;;;;;3.23;0.97;;;11.50;99.90;;;;;;5027089;28;20693;-49
2023/07/27 03:11:22;;;;;;;1.20;1.10;;;11.50;99.90;;;;;;5034032;28;20217;-49
2023/07/27 03:13:48;;;;;;;2.03;1.93;;;11.50;99.90;;;;;;5034477;28;20205;-49
2023/07/27 03:16:15;;;;;;;1.17;1.17;;;11.70;99.90;;;;;;5024784;28;20709;-49
2023/07/27 03:18:42;;;;;;;1.40;1.30;;;11.70;99.90;;;;;;5034575;28;20263;-49
2023/07/27 03:21:10;;;;;;;1.10;1.00;;;11.70;99.90;;;;;;5029582;28;20334;-49
2023/07/27 03:23:37;;;;;;;1.80;1.70;;;11.70;99.90;;;;;;5033146;28;20236;-49
2023/07/27 03:26:10;;;;;;;4.47;1.37;;;11.70;99.90;;;;;;5031721;28;20263;-49
2023/07/27 03:28:39;;;;;;;1.73;1.63;;;11.70;99.90;;;;;;5029320;28;20295;-49
2023/07/27 03:31:18;;;;;;;1.90;1.80;;;11.70;99.90;;;;;;5031507;28;20733;-49
2023/07/27 03:33:44;;;;;;;2.30;2.20;;;11.80;99.90;;;;;;5034236;28;20274;-49
2023/07/27 03:36:11;;;;;;;2.17;2.07;;;11.80;99.90;;;;;;5034462;28;20692;-49
2023/07/27 03:38:38;;;;;;;1.13;1.13;;;11.80;99.90;;;;;;5033059;28;20209;-49
2023/07/27 03:41:05;;;;;;;1.60;1.50;;;11.90;99.90;;;;;;5031452;28;20243;-49
2023/07/27 03:43:32;;;;;;;3.03;1.30;;;11.90;99.90;;;;;;5028650;28;20637;-49
2023/07/27 03:46:01;;;;;;;1.43;1.43;;;11.90;99.90;;;;;;5030873;28;20707;-49
2023/07/27 03:48:27;;;;;;;1.97;1.50;;;11.90;99.90;;;;;;5028227;28;20583;-49
2023/07/27 03:50:54;;;;;;;1.77;1.53;;;11.90;99.90;;;;;;5034021;28;20676;-49
2023/07/27 03:53:21;;;;;;;1.37;1.30;;;12.00;99.90;;;;;;5033808;28;20203;-49
2023/07/27 03:55:48;;;;;;;1.73;1.63;;;12.00;99.90;;;;;;5042686;23;20231;-54
2023/07/27 03:58:15;;;;;;;2.53;1.43;;;12.00;99.90;;;;;;4992729;28;20202;-54
2023/07/27 04:00:42;;;;;;;1.40;0.93;;;12.00;99.90;;;;;;4994501;28;20202;-54
2023/07/27 04:03:10;;;;;;;1.57;0.90;;;12.10;99.90;;;;;;4994262;28;20779;-54
2023/07/27 04:05:37;;;;;;;1.77;1.27;;;12.00;99.90;;;;;;4993554;28;20225;-55
2023/07/27 04:08:05;;;;;;;1.80;1.00;;;12.10;99.90;;;;;;4993222;28;20733;-54
2023/07/27 04:10:32;;;;;;;1.60;1.50;;;12.00;99.90;;;;;;4992187;28;20695;-54
2023/07/27 04:12:59;;;;;;;1.53;1.10;;;12.10;99.90;;;;;;4992235;28;20263;-54
2023/07/27 04:15:26;;;;;;;1.23;1.13;;;12.10;99.90;;;;;;4992968;28;20574;-54
2023/07/27 04:17:53;;;;;;;1.00;1.00;;;12.10;99.90;;;;;;4993455;28;20202;-53
2023/07/27 04:20:21;;;;;;;2.43;0.90;;;12.10;99.90;;;;;;4993544;28;20206;-54
2023/07/27 04:22:49;;;;;;;1.43;1.33;;;12.10;99.90;;;;;;4993144;28;20241;-52
2023/07/27 04:25:16;;;;;;;0.97;0.97;;;12.20;99.90;;;;;;4987161;28;20255;-54
2023/07/27 04:27:43;;;;;;;4.00;0.80;;;12.20;99.90;;;;;;4986079;28;20257;-53
2023/07/27 04:30:11;;;;;;;0.70;0.70;;;12.20;99.90;;;;;;4993113;28;20592;-54
2023/07/27 04:32:38;;;;;;;2.20;1.10;;;12.30;99.90;;;;;;4979246;28;20230;-53
2023/07/27 04:35:06;;;;;;;2.83;1.43;;;12.30;99.90;;;;;;4993099;28;20633;-54
2023/07/27 04:37:34;;;;;;;2.20;1.27;;;12.30;99.90;;;;;;4993191;28;20217;-53
2023/07/27 04:40:01;;;;;;;2.10;1.37;;;12.30;99.90;;;;;;4992651;28;20250;-53
2023/07/27 04:42:28;;;;;;;1.07;1.00;;;12.30;99.90;;;;;;4992982;28;20631;-53
2023/07/27 04:44:55;;;;;;;1.10;1.10;;;12.30;99.90;;;;;;4992504;28;20203;-52
2023/07/27 04:47:22;;;;;;;4.43;1.63;;;12.30;99.90;;;;;;4992815;28;20230;-53
2023/07/27 04:49:49;;;;;;;2.97;1.27;;;12.40;99.90;;;;;;4990515;28;20208;-55
2023/07/27 04:52:16;;;;;;;4.10;1.20;;;12.40;99.90;;;;;;4987961;28;20211;-53
2023/07/27 04:54:44;;;;;;;3.30;1.90;;;12.50;99.90;;;;;;4993067;28;20276;-53
2023/07/27 04:57:11;;;;;;;2.40;1.30;;;12.60;99.90;;;;;;4991736;28;20229;-54
2023/07/27 04:59:38;;;;;;;1.73;1.37;;;12.60;99.90;;;;;;4992691;28;20621;-54
2023/07/27 05:02:05;;;;;;;1.53;1.17;;;12.60;99.90;;;;;;4992593;28;20214;-54
2023/07/27 05:04:32;;;;;;;1.40;1.27;;;12.60;99.90;;;;;;4991568;28;20210;-54
2023/07/27 05:06:59;;;;;;;1.57;1.27;;;12.70;99.90;;;;;;4992565;28;20776;-53
2023/07/27 05:09:26;;;;;;;0.97;0.97;;;12.80;99.90;;;;;;4992434;28;20203;-53
2023/07/27 05:11:55;;;;;;;2.33;1.13;;;12.80;99.90;;;;;;4992379;28;20237;-52
2023/07/27 05:14:23;;;;;;;2.57;1.67;;;12.90;99.90;;;;;;4991952;28;20266;-53
2023/07/27 05:16:50;;;;;;;2.10;1.00;;;12.90;99.90;;;;;;4991929;28;20239;-54
2023/07/27 05:19:17;;;;;;;1.73;0.80;;;13.00;99.90;;;;;;4986003;28;20740;-53
2023/07/27 05:21:43;;;;;;;2.03;1.13;;;13.00;99.90;;;;;;4992176;28;20265;-54
2023/07/27 05:24:11;;;;;;;1.67;1.00;;;13.10;99.90;;;;;;4992067;28;20281;-53
2023/07/27 05:26:38;;;;;;;1.27;0.73;;;13.20;99.90;;;;;;4992184;28;20220;-53
2023/07/27 05:29:06;;;;;;;1.07;1.07;;;13.30;99.90;;;;;;4992124;28;20627;-54
2023/07/27 05:31:33;;;;;;;1.63;1.10;;;13.30;99.90;;;;;;4991626;28;20759;-52
2023/07/27 05:34:00;;;;;;;5.77;1.50;;;13.30;99.90;;;;;;4990672;28;20254;-54
2023/07/27 05:36:27;;;;;;;1.40;1.40;;;13.40;99.90;;;;;;4991038;28;20766;-54
2023/07/27 05:38:55;;;;;;;1.40;1.07;;;13.40;99.90;;;;;;4992648;28;20196;-53
2023/07/27 05:41:22;;;;;;;0.97;0.97;;;13.40;99.90;;;;;;4985641;28;20200;-54
2023/07/27 05:43:49;;;;;;;0.63;0.63;;;13.40;99.90;;;;;;4973565;28;20254;-54
2023/07/27 05:46:17;;;;;;;1.23;1.13;;;13.50;99.90;;;;;;4973689;28;20714;-54
2023/07/27 05:48:44;;;;;;;1.03;1.03;;;13.50;99.90;;;;;;4976890;28;20325;-52
2023/07/27 05:51:11;;;;;;;1.50;1.40;;;13.50;99.90;;;;;;4974643;28;20262;-54
2023/07/27 05:53:38;;;;;;;1.33;1.27;;;13.60;99.90;;;;;;4976421;28;20196;-53
2023/07/27 05:56:05;;;;;;;0.83;0.83;;;13.70;99.90;;;;;;4980060;28;20599;-54
2023/07/27 05:58:32;;;;;;;1.30;1.20;;;13.70;99.90;;;;;;4982386;28;20194;-53
2023/07/27 06:01:01;;;;;;;3.70;1.20;;;13.80;99.90;;;;;;4974818;28;20196;-55
2023/07/27 06:03:30;;;;;;;1.03;1.03;;;13.90;99.90;;;;;;4972225;28;20251;-53
2023/07/27 06:05:57;;;;;;;1.33;1.30;;;14.10;99.90;;;;;;4973628;28;20575;-54
2023/07/27 06:08:24;;;;;;;3.30;0.90;;;14.20;99.90;;;;;;4972346;28;20216;-53
2023/07/27 06:11:01;;;;;;;1.03;1.03;;;14.30;99.90;;;;;;4972297;28;20200;-54
2023/07/27 06:13:29;;;;;;;1.37;1.10;;;14.40;99.90;;;;;;4976968;28;20208;-54
2023/07/27 06:15:56;;;;;;;3.33;0.87;;;14.30;99.90;;;;;;4972428;28;20262;-54
2023/07/27 06:18:23;;;;;;;1.30;1.20;;;14.40;99.90;;;;;;4987952;28;20609;-53
2023/07/27 06:20:51;;;;;;;0.70;0.70;;;14.40;99.90;;;;;;4990268;28;20236;-54
2023/07/27 06:23:18;;;;;;;1.20;1.10;;;14.50;99.90;;;;;;4987093;28;20278;-53
2023/07/27 06:25:46;;;;;;;1.73;1.03;;;14.50;99.90;;;;;;4981502;28;20224;-54
2023/07/27 06:28:13;;;;;;;0.77;0.60;;;14.50;99.90;;;;;;4985386;28;20231;-53
2023/07/27 06:30:40;;;;;;;1.77;1.27;;;14.60;99.90;;;;;;4980920;28;20208;-53
2023/07/27 06:33:07;;;;;;;5.50;2.50;;;14.60;99.90;;;;;;4978721;28;20207;-53
2023/07/27 06:35:34;;;;;;;1.47;1.33;;;14.60;99.90;;;;;;4976737;28;20281;-54
2023/07/27 06:38:03;;;;;;;1.20;1.20;;;14.60;99.90;;;;;;4980550;28;20259;-54
2023/07/27 06:40:30;;;;;;;1.03;1.03;;;14.70;99.90;;;;;;4980341;28;20208;-54
2023/07/27 06:42:57;;;;;;;2.53;1.07;;;14.70;99.90;;;;;;4984714;28;20262;-53
2023/07/27 06:45:24;;;;;;;1.20;1.17;;;14.80;99.90;;;;;;4972697;28;20221;-54
2023/07/27 06:47:52;;;;;;;1.00;1.00;;;14.80;99.90;;;;;;4974425;28;20279;-53
2023/07/27 06:50:19;;;;;;;0.90;0.90;;;14.80;99.90;;;;;;4988548;28;20670;-53
2023/07/27 06:52:46;;;;;;;1.23;1.07;;;15.00;99.90;;;;;;4980574;28;20204;-52
2023/07/27 06:55:14;;;;;;;0.90;0.73;;;15.20;99.90;;;;;;4983854;28;20262;-54
2023/07/27 06:57:42;;;;;;;2.07;0.80;;;15.20;99.90;;;;;;4974827;28;20207;-53
2023/07/27 07:00:10;;;;;;;1.17;1.13;;;15.20;99.90;;;;;;4979783;28;20697;-54
2023/07/27 07:02:37;;;;;;;1.27;1.17;;;15.10;99.90;;;;;;4971818;28;20735;-54
2023/07/27 07:05:04;;;;;;;1.27;1.17;;;15.10;99.90;;;;;;4982280;28;20621;-54
2023/07/27 07:07:31;;;;;;;3.80;1.80;;;15.00;99.90;;;;;;4977911;28;20221;-54
2023/07/27 07:09:58;;;;;;;0.77;0.77;;;15.00;99.90;;;;;;4979205;28;20204;-53
2023/07/27 07:12:27;;;;;;;1.10;1.00;;;15.00;99.90;;;;;;4976423;28;20219;-53
2023/07/27 07:14:54;;;;;;;1.03;0.80;;;14.90;99.90;;;;;;4986471;28;20205;-53
2023/07/27 07:17:21;;;;;;;1.50;1.40;;;14.90;99.90;;;;;;4974091;28;20216;-53
2023/07/27 07:19:48;;;;;;;1.20;1.10;;;14.90;99.90;;;;;;4972721;28;20457;-54
2023/07/27 07:22:15;;;;;;;1.03;0.80;;;14.90;99.90;;;;;;4980507;28;20205;-54
2023/07/27 07:24:42;;;;;;;1.13;1.03;;;14.90;99.90;;;;;;4975007;28;20659;-53
2023/07/27 07:27:09;;;;;;;1.73;1.17;;;15.10;99.90;;;;;;4976219;28;20229;-59
2023/07/27 07:29:38;;;;;;;1.47;1.00;;;15.30;99.90;;;;;;4985643;28;20200;-60
2023/07/27 07:32:05;;;;;;;1.00;0.97;;;15.60;99.90;;;;;;4975238;28;20220;-61
2023/07/27 07:34:33;;;;;;;1.33;0.80;;;15.90;99.90;;;;;;4977883;28;20732;-59
2023/07/27 07:37:01;;;;;;;0.83;0.60;;;16.10;99.90;;;;;;4976381;28;20271;-63
2023/07/27 07:39:28;;;;;;;0.93;0.80;;;16.20;99.90;;;;;;4978101;28;20201;-60
2023/07/27 07:41:55;;;;;;;1.53;1.43;;;16.30;99.90;;;;;;4978018;28;20211;-59
2023/07/27 07:44:22;;;;;;;1.43;0.97;;;16.40;99.90;;;;;;4989327;28;20215;-61
2023/07/27 07:46:50;;;;;;;1.57;1.10;;;16.30;99.90;;;;;;4992904;28;20220;-62
2023/07/27 07:49:17;;;;;;;1.33;1.10;;;16.10;99.90;;;;;;4986203;28;20246;-60
2023/07/27 07:51:44;;;;;;;1.10;1.10;;;16.00;99.90;;;;;;4993057;28;20678;-61
2023/07/27 07:54:11;;;;;;;0.90;0.90;;;16.00;99.90;;;;;;4992344;28;20340;-59
2023/07/27 07:56:38;;;;;;;1.10;1.00;;;16.00;99.90;;;;;;4993112;28;20282;-60
2023/07/27 07:59:05;;;;;;;1.00;1.00;;;16.10;99.90;;;;;;4992643;28;20200;-59
2023/07/27 08:01:32;;;;;;;1.03;1.03;;;16.20;99.90;;;;;;4993414;28;20204;-60
2023/07/27 08:04:01;;;;;;;1.47;1.37;;;16.30;99.90;;;;;;4991812;28;20259;-60
2023/07/27 08:06:28;;;;;;;0.87;0.87;;;16.30;99.90;;;;;;4993423;28;20814;-60
2023/07/27 08:08:55;;;;;;;0.70;0.70;;;16.30;99.90;;;;;;4993568;28;20227;-62
2023/07/27 08:11:22;;;;;;;2.77;1.00;;;16.40;99.90;;;;;;4992050;28;20208;-63
2023/07/27 08:13:49;;;;;;;1.60;0.77;;;16.30;99.90;;;;;;4984473;28;20593;-60
2023/07/27 08:16:16;;;;;;;2.10;0.90;;;16.20;99.90;;;;;;4992449;28;20582;-61
2023/07/27 08:18:43;;;;;;;1.23;1.13;;;16.30;99.90;;;;;;4992045;28;20199;-60
2023/07/27 08:21:11;;;;;;;0.70;0.70;;;16.20;99.90;;;;;;4989487;28;20290;-59
2023/07/27 08:23:38;;;;;;;2.33;0.90;;;16.30;99.90;;;;;;4981663;28;20241;-60
2023/07/27 08:26:09;;;;;;;2.13;1.17;;;16.50;99.90;;;;;;4990631;28;20231;-61
2023/07/27 08:28:36;;;;;;;1.93;1.10;;;16.70;99.90;;;;;;4993061;28;20220;-64
2023/07/27 08:31:04;;;;;;;1.33;1.23;;;16.90;99.90;;;;;;4993253;28;20624;-62
2023/07/27 08:33:32;;;;;;;1.03;1.03;;;17.00;99.90;;;;;;4989647;28;20291;-61
2023/07/27 08:36:00;;;;;;;0.90;0.90;;;17.00;99.90;;;;;;4987427;28;20220;-64
2023/07/27 08:38:29;;;;;;;1.57;1.20;;;17.00;99.90;;;;;;4992892;28;20203;-67
2023/07/27 08:40:57;;;;;;;0.83;0.80;;;17.10;99.90;;;;;;4994547;28;20200;-65
2023/07/27 08:43:24;;;;;;;2.30;1.50;;;17.10;99.90;;;;;;4993351;28;20203;-65
2023/07/27 08:45:52;;;;;;;1.10;1.10;;;17.10;99.90;;;;;;4993672;28;20252;-61
2023/07/27 08:48:19;;;;;;;2.10;1.47;;;17.30;99.90;;;;;;4993443;28;20289;-64
2023/07/27 08:50:48;;;;;;;1.20;1.20;;;17.30;99.90;;;;;;4993769;28;20203;-66
2023/07/27 08:53:16;;;;;;;0.90;0.87;;;17.40;99.90;;;;;;5003046;28;20291;-63
2023/07/27 08:55:45;;;;;;;1.10;1.10;;;17.50;99.90;;;;;;4993188;28;20315;-66
2023/07/27 08:58:12;;;;;;;0.87;0.87;;;17.50;99.90;;;;;;4993728;28;20199;-62
2023/07/27 09:00:39;;;;;;;3.23;1.23;;;17.50;99.90;;;;;;4993318;28;20261;-62
2023/07/27 09:03:07;;;;;;;2.30;0.83;;;17.60;99.90;;;;;;4992752;28;20232;-62
2023/07/27 09:05:39;;;;;;;2.20;1.10;;;17.60;99.90;;;;;;4993040;28;20223;-62
2023/07/27 09:08:10;;;;;;;0.93;0.93;;;17.60;99.90;;;;;;4984200;28;20227;-64
2023/07/27 09:10:38;;;;;;;1.27;0.80;;;17.70;99.90;;;;;;4993021;28;20562;-69
2023/07/27 09:13:07;;;;;;;1.23;1.00;;;17.70;99.90;;;;;;4992980;28;20204;-68
2023/07/27 09:15:35;;;;;;;0.67;0.67;;;17.80;99.90;;;;;;4993155;28;20266;-62
2023/07/27 09:18:03;;;;;;;1.10;1.10;;;18.10;99.90;;;;;;4992516;28;20752;-66
2023/07/27 09:20:31;;;;;;;1.90;1.67;;;18.30;99.90;;;;;;4992681;28;20208;-68
2023/07/27 09:22:58;;;;;;;1.20;1.20;;;18.70;99.90;;;;;;4991765;28;20212;-68
2023/07/27 09:25:25;;;;;;;1.90;1.33;;;19.30;99.90;;;;;;4992340;28;20597;-68
2023/07/27 09:27:54;;;;;;;2.20;0.90;;;19.80;99.90;;;;;;4992373;28;20227;-69
2023/07/27 09:30:24;;;;;;;1.50;1.40;;;20.00;99.90;;;;;;4992576;28;20607;-72
2023/07/27 09:32:53;;;;;;;1.13;1.03;;;19.90;99.90;;;;;;4992445;28;20204;-66
2023/07/27 09:35:22;;;;;;;3.90;1.13;;;20.20;99.90;;;;;;4991317;28;20314;-66
2023/07/27 09:37:52;;;;;;;3.00;1.63;;;20.50;99.90;;;;;;4991999;28;20235;-67
2023/07/27 09:40:24;;;;;;;1.87;1.00;;;20.90;99.90;;;;;;4992004;28;20204;-68
2023/07/27 09:42:53;;;;;;;1.10;1.10;;;21.20;99.90;;;;;;4991286;28;20258;-67
2023/07/27 09:45:22;;;;;;;1.20;1.20;;;21.30;99.90;;;;;;4992257;28;20235;-65
2023/07/27 09:47:52;;;;;;;1.20;1.10;;;22.30;99.90;;;;;;4991912;28;20207;-70
2023/07/27 09:50:20;;;;;;;1.87;0.90;;;22.90;99.90;;;;;;4986472;28;20204;-55
2023/07/27 09:52:50;;;;;;;0.80;0.80;;;22.60;99.90;;;;;;4988398;28;20204;-56
2023/07/27 09:55:18;;;;;;;1.50;0.73;;;22.10;99.90;;;;;;4991634;28;20286;-62
2023/07/27 09:57:45;;;;;;;1.07;0.97;;;22.00;99.90;;;;;;4991735;28;20883;-62
2023/07/27 10:00:13;;;;;;;0.83;0.83;;;22.30;99.90;;;;;;4991948;28;20262;-60
2023/07/27 10:02:42;;;;;;;6.07;1.53;;;23.40;99.90;;;;;;4991109;28;20204;-59
2023/07/27 10:05:09;;;;;;;1.10;1.03;;;23.30;99.90;;;;;;4991058;28;20208;-62
2023/07/27 10:07:36;;;;;;;1.00;1.00;;;23.50;99.90;;;;;;4991520;28;20247;-60
2023/07/27 10:10:26;;;;;;;1.03;1.03;;;24.10;99.90;;;;;;4991730;28;20286;-65
2023/07/27 10:12:57;;;;;;;0.80;0.80;;;23.40;99.90;;;;;;4972023;28;20941;-61
2023/07/27 10:15:27;;;;;;;1.17;1.00;;;22.90;99.90;;;;;;4972304;28;20246;-61
2023/07/27 10:18:00;;;;;;;1.00;1.00;;;22.90;99.90;;;;;;5044064;23;20227;-54
2023/07/27 10:20:30;;;;;;;1.10;1.07;;;23.20;99.90;;;;;;4991411;28;20211;-56
2023/07/27 10:23:10;;;;;;;0.93;0.93;;;23.50;99.90;;;;;;4973716;28;20203;-54
2023/07/27 10:26:06;;;;;;;1.63;1.53;;;24.10;99.90;;;;;;4983129;28;20215;-58
2023/07/27 10:28:37;;;;;;;1.40;1.00;;;24.60;99.90;;;;;;4984517;28;20299;-60
2023/07/27 10:31:23;;;;;;;1.50;1.40;;;24.80;99.90;;;;;;4991290;28;20582;-62
2023/07/27 10:33:57;;;;;;;2.70;1.10;;;24.40;99.90;;;;;;4989725;28;20266;-50
2023/07/27 10:36:44;;;;;;;1.67;1.20;;;24.50;99.90;;;;;;4982951;28;20199;-51
2023/07/27 10:39:15;;;;;;;1.50;0.97;;;25.10;99.90;;;;;;4991715;28;20207;-51
2023/07/27 10:41:58;;;;;;;1.60;1.50;;;25.00;99.90;;;;;;4992239;28;20219;-51
2023/07/27 10:44:26;;;;;;;1.33;1.23;;;24.50;99.90;;;;;;4991823;28;20299;-51
2023/07/27 10:46:56;;;;;;;1.40;1.30;;;24.20;99.90;;;;;;4989298;28;20267;-51
2023/07/27 10:49:24;;;;;;;1.40;1.40;;;23.90;99.90;;;;;;4989922;28;20227;-52
2023/07/27 10:51:52;;;;;;;1.70;1.60;;;24.10;99.90;;;;;;4982248;28;20204;-50
2023/07/27 10:54:19;;;;;;;3.83;1.30;;;24.80;99.90;;;;;;4984620;28;20758;-57
2023/07/27 10:56:48;;;;;;;1.80;1.67;;;25.70;99.90;;;;;;4992467;28;20211;-54
2023/07/27 10:59:15;;;;;;;2.40;1.10;;;26.00;99.90;;;;;;4991259;28;20207;-56
2023/07/27 11:01:47;;;;;;;0.90;0.90;;;26.00;99.90;;;;;;4987276;28;20206;-56
2023/07/27 11:04:15;;;;;;;1.20;1.00;;;26.10;99.90;;;;;;4982554;28;20287;-56
2023/07/27 11:06:47;;;;;;;1.30;1.17;;;25.60;99.90;;;;;;4975222;28;20222;-54
2023/07/27 11:09:15;;;;;;;1.40;1.30;;;25.60;99.90;;;;;;4975040;28;20216;-54
2023/07/27 11:11:43;;;;;;;1.43;1.33;;;25.10;99.90;;;;;;4975236;28;20200;-55
2023/07/27 11:14:11;;;;;;;1.70;1.60;;;25.20;99.90;;;;;;4975136;28;20199;-54
2023/07/27 11:16:39;;;;;;;1.43;1.20;;;25.50;99.90;;;;;;4975520;28;20208;-54
2023/07/27 11:19:10;;;;;;;1.20;1.20;;;25.80;99.90;;;;;;4989434;28;20217;-54
2023/07/27 11:21:40;;;;;;;1.70;1.70;;;25.60;99.90;;;;;;4977664;28;20196;-54
2023/07/27 11:24:10;;;;;;;2.57;1.23;;;25.40;99.90;;;;;;4974735;28;20239;-54
2023/07/27 11:26:38;;;;;;;1.10;1.10;;;25.10;99.90;;;;;;4975180;28;20193;-54
2023/07/27 11:29:06;;;;;;;0.93;0.90;;;25.10;99.90;;;;;;4975570;28;20640;-54
2023/07/27 11:31:33;;;;;;;2.00;1.20;;;24.80;99.90;;;;;;4979706;28;20239;-55
2023/07/27 11:34:01;;;;;;;2.90;1.40;;;24.40;99.90;;;;;;4987329;28;20550;-56
2023/07/27 11:36:30;;;;;;;1.87;1.23;;;24.30;99.90;;;;;;4986710;28;20204;-58
2023/07/27 11:38:57;;;;;;;1.20;1.20;;;24.30;99.90;;;;;;4974946;28;20299;-58
2023/07/27 11:41:29;;;;;;;1.00;1.00;;;24.30;99.90;;;;;;4974622;28;20283;-58
2023/07/27 11:43:57;;;;;;;1.53;1.43;;;24.30;99.90;;;;;;4974425;28;20196;-58
2023/07/27 11:46:27;;;;;;;1.40;1.30;;;24.20;99.90;;;;;;4980995;28;20228;-58
2023/07/27 11:48:56;;;;;;;3.03;2.00;;;24.00;99.90;;;;;;4987369;28;20258;-58
2023/07/27 11:51:24;;;;;;;1.37;1.37;;;24.00;99.90;;;;;;4974875;28;20211;-59
2023/07/27 11:53:51;;;;;;;1.50;1.50;;;23.80;99.90;;;;;;4988470;28;20228;-58
2023/07/27 11:56:18;;;;;;;1.20;1.20;;;23.80;99.90;;;;;;4978791;28;20671;-55
2023/07/27 11:58:46;;;;;;;1.97;1.27;;;23.70;99.90;;;;;;4974378;28;20256;-54
2023/07/27 12:01:14;;;;;;;1.07;0.93;;;23.60;99.90;;;;;;4974406;28;20200;-53
2023/07/27 12:03:41;;;;;;;1.67;1.60;;;23.40;99.90;;;;;;4974200;28;20349;-53
2023/07/27 12:06:08;;;;;;;1.30;1.20;;;23.20;99.90;;;;;;4973877;28;20288;-57
2023/07/27 12:08:39;;;;;;;1.30;1.30;;;23.10;99.90;;;;;;4982500;28;20220;-55
2023/07/27 12:11:07;;;;;;;1.10;1.10;;;22.90;99.90;;;;;;4978404;28;20204;-56
2023/07/27 12:13:37;;;;;;;1.33;1.23;;;22.90;99.90;;;;;;4987710;28;20684;-58
2023/07/27 12:16:08;;;;;;;1.13;1.13;;;22.80;99.90;;;;;;4992478;28;20224;-56
2023/07/27 12:18:35;;;;;;;1.30;1.30;;;22.80;99.90;;;;;;4992056;28;20285;-56
2023/07/27 12:21:03;;;;;;;3.00;1.50;;;22.80;99.90;;;;;;4992285;28;20204;-57
2023/07/27 12:23:30;;;;;;;1.43;1.20;;;22.70;99.90;;;;;;4990909;28;20204;-57
2023/07/27 12:25:57;;;;;;;1.47;1.30;;;22.70;99.90;;;;;;4981226;28;20224;-54
2023/07/27 12:28:24;;;;;;;1.30;1.30;;;22.60;99.90;;;;;;4984296;28;20228;-55
2023/07/27 12:30:51;;;;;;;1.53;1.10;;;22.60;99.90;;;;;;4986562;28;20216;-56
2023/07/27 12:33:21;;;;;;;1.37;1.20;;;22.60;99.90;;;;;;4973768;28;20213;-55
2023/07/27 12:35:50;;;;;;;1.27;0.90;;;22.50;99.90;;;;;;4973702;28;20197;-57
2023/07/27 12:38:17;;;;;;;0.83;0.83;;;22.50;99.90;;;;;;4974950;28;20236;-58
2023/07/27 12:40:44;;;;;;;1.13;1.13;;;22.70;99.90;;;;;;4983066;28;20244;-57
2023/07/27 12:43:12;;;;;;;4.43;1.40;;;22.90;99.90;;;;;;4975347;28;20758;-56
2023/07/27 12:45:39;;;;;;;1.40;1.30;;;23.00;99.90;;;;;;4975553;28;20551;-57
2023/07/27 12:48:06;;;;;;;1.53;1.43;;;23.00;99.90;;;;;;4973355;28;20216;-57
2023/07/27 12:50:35;;;;;;;1.33;1.23;;;23.10;99.90;;;;;;4973499;28;20216;-58
2023/07/27 12:53:02;;;;;;;1.40;1.40;;;23.10;99.90;;;;;;4980383;28;20666;-56
2023/07/27 12:55:29;;;;;;;1.93;1.83;;;23.10;99.90;;;;;;4987051;28;20204;-54